Airfield :
LOGIN :

Register | Disclaimer

   EN    FR    IT 

 










Legend :    VFR   Marginal VFR   IFR   Intensive IFR   Very Intensive IFR
Visi :
Ceiling :
>= 8 km
>= 3000ft
5 to 8 km
1000 to 3000 ft
1500m to 5 km
500 to 1000 ft
800 to 1500m
200 to 500 ft
< 800m
< 200 ft
Symbols :   Thunderstorms  Fog  Heavy snow  Heavy precipitations  Wind > 20 kt
SIGMETs :     Misc.  Thunderstorms  Icing  Turbulence  Mountain Waves  Volcanic Ashes






- Airport Elevation : 12 ft
- IATA code : BCN


LEBL - Barcelone

CURRENT METAR :
  • 190430Z 27002KT 9999 FEW015 25/23 Q1016 NOSIG

EXPIRED METARs :
  • 190400Z 20005KT 160V230 9999 -RA FEW015 SCT060 25/23 Q1017 NOSIG
  • 190330Z 23007KT 9999 FEW015 25/23 Q1017 NOSIG
  • 190300Z 19005KT 160V220 CAVOK 25/21 Q1017 NOSIG
  • 190230Z 29005KT 9999 FEW015 25/19 Q1018 NOSIG
  • 190200Z 31004KT 9999 FEW015 24/20 Q1017 NOSIG
  • 190130Z 26006KT 9999 FEW012 25/22 Q1017 NOSIG
  • 190100Z 24008KT 9999 FEW011 24/22 Q1017 NOSIG
  • 190030Z 24006KT 9999 FEW011 25/23 Q1017 NOSIG
  • 190000Z 21008KT 170V240 CAVOK 25/23 Q1017 NOSIG

TAF TAF LEBL
Valid from the 19 at 00:00 until the 20 at 00:00 UTC


182300Z 1900/1924 VRB03KT CAVOK TX31/1912Z TN23/1906Z
BECMG 1908/1910 21010KT
BECMG 1919/1921 VRB03KT



MET'MAP, your aeronautical weather chart ! - Copyright ORBIFLY December 2007 - Disclaimer

ORBIFLY MET'MAP TEAM :

Programming & Development : Alexandra Zaïnal
Original concept : Baudouin d'Aumeries
Technical & hardware support : Manuel Goepfert
Assistance : Marc-Olivier Méhu




SOURCES & CREDITS :

   NOAA